Time;durP1;ratioP1;P1;durP2;ratioP2;P2;SDS_P1;SDS_P2;PMS_P1;PMS_P2;Temp;Humidity;BMP_temperature;BMP_pressure;BME280_temperature;BME280_humidity;BME280_pressure;Samples;Min_cycle;Max_cycle;Signal;HPM_P1;HPM_P2
2022/05/11 00:01:45;;;;;;;2.45;1.27;;;17.40;99.90;;;;;;5074820;28;20073;-72
2022/05/11 00:04:12;;;;;;;1.45;1.10;;;17.40;99.90;;;;;;5059511;28;20022;-72
2022/05/11 00:06:38;;;;;;;2.63;1.20;;;17.60;99.90;;;;;;5054321;28;20068;-71
2022/05/11 00:09:07;;;;;;;2.10;1.05;;;17.60;99.90;;;;;;5062948;28;20028;-71
2022/05/11 00:11:33;;;;;;;2.10;1.30;;;17.80;99.90;;;;;;5074489;28;20056;-71
2022/05/11 00:14:00;;;;;;;2.15;1.00;;;17.60;99.90;;;;;;5074503;28;20033;-71
2022/05/11 00:16:27;;;;;;;2.78;1.15;;;17.40;99.90;;;;;;5074590;28;20028;-71
2022/05/11 00:18:54;;;;;;;2.78;0.98;;;17.30;99.90;;;;;;5074418;28;20021;-72
2022/05/11 00:21:20;;;;;;;3.17;1.20;;;17.40;99.90;;;;;;5074325;28;20033;-71
2022/05/11 00:23:47;;;;;;;6.45;1.55;;;17.60;99.90;;;;;;5074206;28;20070;-71
2022/05/11 00:26:13;;;;;;;4.57;1.23;;;17.70;99.90;;;;;;5074259;28;20032;-71
2022/05/11 00:28:38;;;;;;;2.80;1.27;;;17.50;99.90;;;;;;5074093;28;20028;-71
2022/05/11 00:31:04;;;;;;;2.97;1.10;;;17.40;99.90;;;;;;5074259;28;20475;-71
2022/05/11 00:33:30;;;;;;;5.38;1.60;;;17.40;99.90;;;;;;5074062;28;20032;-71
2022/05/11 00:35:56;;;;;;;3.42;1.00;;;17.20;99.90;;;;;;5074248;28;20044;-71
2022/05/11 00:38:25;;;;;;;3.60;1.25;;;17.20;99.90;;;;;;5074105;28;20024;-71
2022/05/11 00:40:57;;;;;;;3.78;1.20;;;17.20;99.90;;;;;;5073912;28;20037;-71
2022/05/11 00:43:27;;;;;;;4.35;1.20;;;17.30;99.90;;;;;;5053778;28;20029;-71
2022/05/11 00:45:57;;;;;;;6.95;1.45;;;17.30;99.90;;;;;;5034137;28;20048;-71
2022/05/11 00:51:13;;;;;;;2.65;1.17;;;17.20;99.90;;;;;;5052314;28;20465;-71
2022/05/11 00:53:42;;;;;;;4.28;1.38;;;17.30;99.90;;;;;;5053739;28;20473;-71
2022/05/11 00:56:07;;;;;;;5.78;1.38;;;17.50;99.90;;;;;;5035978;28;20036;-71
2022/05/11 00:58:42;;;;;;;1.05;0.95;;;17.50;99.90;;;;;;5053406;28;20032;-71
2022/05/11 01:01:08;;;;;;;3.80;1.15;;;17.50;99.90;;;;;;5053685;28;20033;-71
2022/05/11 01:03:44;;;;;;;5.30;1.60;;;17.30;99.90;;;;;;5053305;28;20465;-71
2022/05/11 01:06:11;;;;;;;5.38;1.35;;;17.10;99.90;;;;;;5053306;28;20037;-71
2022/05/11 01:08:38;;;;;;;2.97;1.08;;;17.00;99.90;;;;;;5053517;28;20040;-71
2022/05/11 01:11:06;;;;;;;1.35;0.98;;;16.90;99.90;;;;;;5053463;28;20029;-71
2022/05/11 01:13:33;;;;;;;2.28;1.10;;;17.00;99.90;;;;;;5053195;28;20106;-71
2022/05/11 01:16:00;;;;;;;2.63;1.08;;;16.90;99.90;;;;;;5053405;28;20025;-71
2022/05/11 01:18:29;;;;;;;4.35;1.10;;;17.00;99.90;;;;;;5052886;28;20025;-71
2022/05/11 01:20:55;;;;;;;5.97;1.20;;;17.00;99.90;;;;;;5053437;28;20074;-72
2022/05/11 01:23:43;;;;;;;1.75;1.10;;;17.10;99.90;;;;;;5035543;28;20044;-71
2022/05/11 01:26:09;;;;;;;3.15;1.13;;;17.10;99.90;;;;;;5053199;28;20028;-71
2022/05/11 01:28:41;;;;;;;5.93;1.33;;;17.10;99.90;;;;;;5035102;28;20593;-71
2022/05/11 01:31:09;;;;;;;3.03;1.00;;;17.30;99.90;;;;;;5053105;28;20033;-71
2022/05/11 01:33:39;;;;;;;4.25;1.20;;;17.50;99.90;;;;;;5052920;28;20068;-71
2022/05/11 01:36:25;;;;;;;6.10;1.25;;;17.60;99.90;;;;;;5053259;28;20056;-71
2022/05/11 01:39:11;;;;;;;4.65;1.02;;;17.40;99.90;;;;;;5052878;28;20363;-71
2022/05/11 01:41:40;;;;;;;5.65;1.25;;;17.20;99.90;;;;;;5053019;28;20031;-71
2022/05/11 01:44:13;;;;;;;7.43;1.33;;;17.10;99.90;;;;;;5052987;28;20028;-71
2022/05/11 01:46:43;;;;;;;4.60;1.17;;;17.00;99.90;;;;;;5034865;28;20071;-71
2022/05/11 01:49:09;;;;;;;3.28;1.15;;;17.00;99.90;;;;;;5052451;28;20086;-72
2022/05/11 01:51:34;;;;;;;2.15;1.17;;;16.90;99.90;;;;;;5061748;28;20435;-72
2022/05/11 01:54:01;;;;;;;3.47;1.35;;;16.90;99.90;;;;;;5072995;28;20025;-71
2022/05/11 01:56:27;;;;;;;5.72;1.20;;;16.90;99.90;;;;;;5072703;28;20127;-71
2022/05/11 01:58:53;;;;;;;2.95;1.13;;;17.00;99.90;;;;;;5072751;28;20063;-71
2022/05/11 02:01:23;;;;;;;3.30;1.40;;;17.00;99.90;;;;;;5054723;28;20111;-71
2022/05/11 02:03:49;;;;;;;5.45;1.20;;;16.90;99.90;;;;;;5060453;28;20025;-71
2022/05/11 02:09:00;;;;;;;4.70;1.30;;;17.00;99.90;;;;;;5034869;28;20448;-71
2022/05/11 02:11:26;;;;;;;7.97;1.27;;;17.00;99.90;;;;;;5052384;28;20041;-71
2022/05/11 02:13:53;;;;;;;2.17;1.38;;;16.90;99.90;;;;;;5052778;28;20028;-71
2022/05/11 02:16:19;;;;;;;4.80;1.38;;;16.90;99.90;;;;;;5034651;28;20104;-71
2022/05/11 02:18:45;;;;;;;4.28;1.25;;;17.00;99.90;;;;;;5052378;28;20116;-71
2022/05/11 02:21:11;;;;;;;5.82;1.27;;;17.00;99.90;;;;;;5034390;28;20065;-71
2022/05/11 02:23:37;;;;;;;2.55;1.27;;;17.10;99.90;;;;;;5053040;28;20028;-71
2022/05/11 02:26:08;;;;;;;4.43;1.20;;;17.10;99.90;;;;;;5052657;28;20094;-71
2022/05/11 02:28:34;;;;;;;5.85;1.58;;;16.80;99.90;;;;;;5052408;28;20036;-71
2022/05/11 02:31:00;;;;;;;3.55;1.40;;;16.70;99.90;;;;;;5052271;28;20029;-71
2022/05/11 02:33:27;;;;;;;2.72;1.25;;;16.80;99.90;;;;;;5034333;28;20036;-71
2022/05/11 02:35:54;;;;;;;6.95;1.48;;;16.70;99.90;;;;;;5052558;28;20025;-71
2022/05/11 02:38:26;;;;;;;12.23;1.48;;;16.80;99.90;;;;;;5031080;28;20033;-72
2022/05/11 02:40:52;;;;;;;9.25;1.55;;;16.70;99.90;;;;;;5032639;28;20037;-71
2022/05/11 02:43:18;;;;;;;6.30;1.50;;;16.70;99.90;;;;;;5032344;28;20022;-71
2022/05/11 02:45:45;;;;;;;5.70;1.30;;;16.90;99.90;;;;;;5031950;28;20375;-71
2022/05/11 02:48:14;;;;;;;9.10;1.92;;;16.70;99.90;;;;;;5049292;28;20481;-71
2022/05/11 02:50:44;;;;;;;2.80;1.30;;;16.70;99.90;;;;;;5052191;28;20049;-71
2022/05/11 02:53:11;;;;;;;2.00;1.50;;;16.70;99.90;;;;;;5052435;28;20033;-71
2022/05/11 02:55:45;;;;;;;2.95;1.30;;;16.80;99.90;;;;;;5052157;28;20033;-71
2022/05/11 02:58:12;;;;;;;6.05;1.42;;;16.80;99.90;;;;;;5052189;28;20473;-71
2022/05/11 03:00:40;;;;;;;3.83;1.60;;;16.80;99.90;;;;;;5051988;28;20112;-71
2022/05/11 03:03:07;;;;;;;4.57;1.50;;;16.70;99.90;;;;;;5052147;28;20067;-71
2022/05/11 03:05:34;;;;;;;5.15;1.60;;;16.50;99.90;;;;;;5034241;28;20367;-71
2022/05/11 03:08:00;;;;;;;5.50;1.25;;;16.50;99.90;;;;;;5052017;28;20028;-71
2022/05/11 03:10:26;;;;;;;3.78;1.50;;;16.40;99.90;;;;;;5052034;28;20064;-71
2022/05/11 03:12:53;;;;;;;6.80;1.55;;;16.50;99.90;;;;;;5051899;28;20183;-71
2022/05/11 03:15:19;;;;;;;4.63;1.63;;;16.50;99.90;;;;;;5037006;28;20119;-71
2022/05/11 03:17:45;;;;;;;3.30;1.38;;;16.50;99.90;;;;;;5055747;28;20090;-71
2022/05/11 03:20:11;;;;;;;7.47;1.58;;;16.40;99.90;;;;;;5055391;28;20025;-71
2022/05/11 03:22:37;;;;;;;6.63;1.83;;;16.40;99.90;;;;;;5055478;28;20037;-72
2022/05/11 03:25:04;;;;;;;3.67;1.90;;;16.30;99.90;;;;;;5037798;28;20107;-71
2022/05/11 03:27:30;;;;;;;6.05;1.60;;;16.20;99.90;;;;;;5037652;28;20036;-71
2022/05/11 03:29:56;;;;;;;9.35;1.73;;;16.30;99.90;;;;;;5055144;28;20021;-71
2022/05/11 03:35:10;;;;;;;5.93;1.50;;;16.20;99.90;;;;;;5055290;28;20393;-72
2022/05/11 03:37:37;;;;;;;5.28;1.50;;;16.30;99.90;;;;;;5055124;28;20556;-71
2022/05/11 03:40:07;;;;;;;2.92;1.40;;;16.50;99.90;;;;;;5055167;28;20013;-71
2022/05/11 03:42:33;;;;;;;6.20;1.70;;;16.10;99.90;;;;;;5055030;28;20048;-71
2022/05/11 03:45:08;;;;;;;8.18;1.70;;;16.20;99.90;;;;;;5037022;28;20481;-71
2022/05/11 03:47:34;;;;;;;4.78;1.52;;;16.00;99.90;;;;;;5054886;28;20029;-71
2022/05/11 03:49:59;;;;;;;8.00;1.55;;;16.00;99.90;;;;;;5055036;28;20027;-71
2022/05/11 03:52:26;;;;;;;4.60;1.38;;;16.10;99.90;;;;;;5054534;28;20061;-71
2022/05/11 03:54:51;;;;;;;6.28;1.50;;;16.10;99.90;;;;;;5054987;28;20032;-72
2022/05/11 03:57:17;;;;;;;7.07;1.85;;;15.80;99.90;;;;;;5054796;28;20099;-71
2022/05/11 03:59:43;;;;;;;8.77;1.77;;;15.70;99.90;;;;;;5036615;28;20025;-71
2022/05/11 04:02:08;;;;;;;3.42;1.60;;;15.80;99.90;;;;;;5054870;28;20037;-71
2022/05/11 04:04:34;;;;;;;6.82;1.50;;;15.70;99.90;;;;;;5054253;28;20021;-71
2022/05/11 04:07:00;;;;;;;7.03;1.90;;;15.50;99.90;;;;;;5054531;28;20120;-71
2022/05/11 04:09:26;;;;;;;5.00;1.45;;;15.50;99.90;;;;;;5056545;28;20024;-71
2022/05/11 04:11:52;;;;;;;6.00;1.65;;;15.70;99.90;;;;;;5074720;28;20111;-71
2022/05/11 04:14:18;;;;;;;9.65;1.50;;;15.50;99.90;;;;;;5074121;28;20436;-71
2022/05/11 04:16:43;;;;;;;3.75;1.63;;;15.50;99.90;;;;;;5074544;28;20500;-71
2022/05/11 04:19:09;;;;;;;8.18;1.73;;;15.50;99.90;;;;;;5074419;28;20043;-71
2022/05/11 04:21:36;;;;;;;14.27;2.15;;;15.60;99.90;;;;;;5074193;28;20036;-71
2022/05/11 04:24:02;;;;;;;3.58;1.50;;;15.50;99.90;;;;;;5074511;28;20023;-71
2022/05/11 04:26:30;;;;;;;11.77;2.28;;;15.70;99.90;;;;;;5073273;28;20039;-71
2022/05/11 04:28:56;;;;;;;13.23;1.70;;;15.70;99.90;;;;;;5073678;28;20024;-71
2022/05/11 04:31:22;;;;;;;8.98;2.08;;;15.60;99.90;;;;;;5074350;28;20032;-71
2022/05/11 04:33:50;;;;;;;5.28;1.80;;;15.80;99.90;;;;;;5074119;28;20492;-71
2022/05/11 04:36:16;;;;;;;10.70;2.28;;;15.70;99.90;;;;;;5073969;28;20020;-71
2022/05/11 04:38:42;;;;;;;6.03;1.90;;;15.80;99.90;;;;;;5073933;28;20059;-71
2022/05/11 04:41:08;;;;;;;8.10;2.00;;;15.80;99.90;;;;;;5074067;28;20125;-71
2022/05/11 04:43:34;;;;;;;6.00;1.92;;;15.80;99.90;;;;;;5073546;28;20025;-72
2022/05/11 04:45:59;;;;;;;6.45;1.85;;;15.70;99.90;;;;;;5056177;28;20469;-71
2022/05/11 04:48:26;;;;;;;5.55;1.90;;;15.90;99.90;;;;;;5054611;28;20071;-71
2022/05/11 04:50:58;;;;;;;10.10;1.92;;;16.10;99.90;;;;;;5053694;28;20045;-71
2022/05/11 04:53:25;;;;;;;9.55;2.20;;;16.00;99.90;;;;;;5053696;28;20033;-71
2022/05/11 04:55:50;;;;;;;15.57;2.20;;;16.20;99.90;;;;;;5035988;28;20027;-71
2022/05/11 04:58:16;;;;;;;6.45;1.92;;;16.30;99.90;;;;;;5053314;28;20115;-72
2022/05/11 05:00:42;;;;;;;5.32;2.10;;;16.30;99.90;;;;;;5053620;28;20028;-71
2022/05/11 05:03:10;;;;;;;5.15;2.00;;;16.10;99.90;;;;;;5053631;28;20430;-72
2022/05/11 05:05:36;;;;;;;8.65;2.00;;;15.90;99.90;;;;;;5053087;28;20094;-71
2022/05/11 05:08:02;;;;;;;9.10;2.08;;;16.00;99.90;;;;;;5035793;28;20021;-71
2022/05/11 05:10:28;;;;;;;8.63;2.22;;;15.60;99.90;;;;;;5035258;28;20043;-71
2022/05/11 05:12:54;;;;;;;11.55;2.20;;;15.70;99.90;;;;;;5035683;28;20066;-71
2022/05/11 05:15:20;;;;;;;12.32;1.83;;;15.80;99.90;;;;;;5035309;28;20489;-71
2022/05/11 05:17:51;;;;;;;5.72;1.90;;;15.70;99.90;;;;;;5053296;28;20017;-71
2022/05/11 05:20:18;;;;;;;9.02;1.92;;;15.80;99.90;;;;;;5053353;28;20021;-71
2022/05/11 05:22:43;;;;;;;13.38;2.83;;;15.80;99.90;;;;;;5053146;28;20024;-73
2022/05/11 05:25:09;;;;;;;5.68;1.92;;;15.80;99.90;;;;;;5046517;28;20052;-71
2022/05/11 05:27:35;;;;;;;10.02;2.30;;;15.80;99.90;;;;;;5026393;28;20025;-71
2022/05/11 05:32:46;;;;;;;11.25;2.28;;;16.10;99.90;;;;;;5047261;28;20455;-71
2022/05/11 05:35:16;;;;;;;6.75;1.77;;;16.10;99.90;;;;;;5035471;28;20498;-70
2022/05/11 05:37:43;;;;;;;6.70;1.98;;;15.80;99.90;;;;;;5045325;28;20386;-71
2022/05/11 05:40:09;;;;;;;9.35;2.05;;;15.70;99.90;;;;;;5048983;28;20029;-71
2022/05/11 05:42:35;;;;;;;11.43;2.22;;;16.00;99.90;;;;;;5038352;28;20033;-72
2022/05/11 05:45:02;;;;;;;7.13;1.70;;;15.80;99.90;;;;;;5030776;28;20067;-71
2022/05/11 05:47:27;;;;;;;7.88;1.92;;;15.90;99.90;;;;;;5044038;28;20036;-71
2022/05/11 05:49:53;;;;;;;5.57;1.63;;;15.90;99.90;;;;;;5067522;28;20032;-71
2022/05/11 05:52:24;;;;;;;9.15;1.70;;;15.90;99.90;;;;;;5069012;28;20042;-73
2022/05/11 05:54:51;;;;;;;6.57;1.65;;;16.10;99.90;;;;;;5055568;28;20065;-71
2022/05/11 05:57:18;;;;;;;6.03;2.08;;;15.90;99.90;;;;;;5048105;28;20025;-71
2022/05/11 05:59:45;;;;;;;9.52;2.17;;;15.80;99.90;;;;;;5038764;28;20033;-71
2022/05/11 06:02:14;;;;;;;11.73;2.00;;;15.70;99.90;;;;;;5041477;28;20018;-71
2022/05/11 06:04:41;;;;;;;9.40;1.35;;;15.70;99.90;;;;;;5054720;28;20047;-72
2022/05/11 06:07:07;;;;;;;15.70;2.10;;;15.90;99.90;;;;;;5035510;28;20379;-71
2022/05/11 06:09:33;;;;;;;7.22;1.45;;;15.70;99.90;;;;;;5046280;28;20033;-71
2022/05/11 06:11:58;;;;;;;5.70;1.83;;;15.50;99.90;;;;;;5040692;28;20040;-71
2022/05/11 06:14:25;;;;;;;7.80;1.90;;;15.60;99.90;;;;;;5039429;28;20029;-71
2022/05/11 06:16:53;;;;;;;14.85;3.33;;;15.70;99.90;;;;;;5047642;28;20083;-71
2022/05/11 06:19:19;;;;;;;6.72;1.17;;;15.90;99.90;;;;;;5035302;28;20044;-73
2022/05/11 06:21:47;;;;;;;9.00;1.38;;;15.70;99.90;;;;;;5050027;28;20465;-71
2022/05/11 06:24:13;;;;;;;9.27;2.35;;;15.70;99.90;;;;;;5042465;28;20120;-71
2022/05/11 06:26:38;;;;;;;11.25;1.70;;;15.70;99.90;;;;;;5051271;28;20136;-71
2022/05/11 06:29:05;;;;;;;8.00;1.05;;;15.70;99.90;;;;;;5017311;28;20087;-71
2022/05/11 06:31:31;;;;;;;9.82;1.95;;;15.90;98.90;;;;;;5046485;28;20036;-71
2022/05/11 06:33:57;;;;;;;7.03;1.70;;;16.00;98.80;;;;;;5040450;28;20041;-72
2022/05/11 06:36:26;;;;;;;9.07;1.45;;;15.80;99.70;;;;;;5039573;28;20029;-71
2022/05/11 06:38:53;;;;;;;9.65;1.55;;;16.00;98.90;;;;;;5047530;28;20060;-72
2022/05/11 06:41:23;;;;;;;8.85;1.60;;;16.20;98.60;;;;;;5035003;28;20489;-71
2022/05/11 06:43:51;;;;;;;11.27;2.28;;;16.00;97.90;;;;;;5043996;28;20064;-71
2022/05/11 06:46:18;;;;;;;9.40;1.65;;;15.80;98.90;;;;;;5041423;28;20112;-71
2022/05/11 06:48:45;;;;;;;9.82;1.83;;;15.90;99.00;;;;;;5047348;28;20536;-71
2022/05/11 06:51:12;;;;;;;6.65;1.50;;;16.20;98.20;;;;;;5036561;28;20124;-71
2022/05/11 06:59:20;;;;;;;11.93;2.35;;;16.40;98.50;;;;;;5055247;28;20037;-72
2022/05/11 07:01:47;;;;;;;12.10;1.83;;;16.10;98.50;;;;;;5044739;28;20080;-72
2022/05/11 07:04:13;;;;;;;14.25;1.73;;;16.00;98.70;;;;;;5027579;28;20388;-72
2022/05/11 07:06:39;;;;;;;27.77;3.08;;;15.90;99.00;;;;;;5052446;28;20037;-71
2022/05/11 07:09:05;;;;;;;15.27;2.28;;;16.10;98.90;;;;;;5050492;28;20033;-71
2022/05/11 07:14:15;;;;;;;9.52;2.10;;;16.50;97.80;;;;;;5040854;28;20068;-71
2022/05/11 07:16:40;;;;;;;11.77;2.45;;;16.40;98.40;;;;;;5051440;28;20068;-71
2022/05/11 07:19:06;;;;;;;9.82;1.63;;;16.20;99.20;;;;;;5053502;28;20028;-71
2022/05/11 07:21:32;;;;;;;11.48;2.15;;;16.40;98.90;;;;;;5036239;28;20021;-71
2022/05/11 07:23:58;;;;;;;7.90;1.60;;;16.70;98.80;;;;;;5036438;28;20568;-71
2022/05/11 07:26:24;;;;;;;12.35;2.00;;;17.00;98.70;;;;;;5049576;28;20022;-71
2022/05/11 07:28:50;;;;;;;11.25;1.88;;;17.00;97.80;;;;;;5035857;28;20083;-72
2022/05/11 07:31:16;;;;;;;22.17;2.53;;;17.10;97.70;;;;;;5054197;28;20021;-71
2022/05/11 07:33:42;;;;;;;7.30;1.98;;;17.00;97.90;;;;;;5054066;28;20093;-72
2022/05/11 07:36:08;;;;;;;11.68;1.80;;;17.10;97.90;;;;;;5054246;28;20032;-73
2022/05/11 07:38:38;;;;;;;10.88;1.92;;;17.10;97.80;;;;;;5036023;28;20021;-71
2022/05/11 07:41:05;;;;;;;9.98;1.52;;;16.80;98.80;;;;;;5054794;28;20485;-71
2022/05/11 07:43:32;;;;;;;11.75;1.92;;;16.70;98.80;;;;;;5046225;28;20064;-71
2022/05/11 07:45:58;;;;;;;9.65;2.15;;;16.50;99.70;;;;;;5029157;28;20025;-73
2022/05/11 07:48:23;;;;;;;14.73;1.90;;;16.90;99.50;;;;;;5051343;28;20021;-73
2022/05/11 07:50:49;;;;;;;9.40;1.83;;;16.80;99.40;;;;;;5019963;28;20481;-72
2022/05/11 07:53:16;;;;;;;10.80;2.40;;;17.00;99.40;;;;;;5048095;28;20119;-74
2022/05/11 07:55:43;;;;;;;9.10;2.30;;;16.80;99.30;;;;;;5043398;28;20029;-75
2022/05/11 08:00:58;;;;;;;10.00;2.47;;;17.10;99.30;;;;;;5016949;28;20502;-72
2022/05/11 08:03:25;;;;;;;9.02;2.30;;;17.20;98.90;;;;;;5042736;28;20017;-74
2022/05/11 08:05:51;;;;;;;9.82;2.05;;;17.10;99.20;;;;;;5061677;28;20036;-73
2022/05/11 08:08:17;;;;;;;13.20;1.83;;;17.40;99.00;;;;;;5054093;28;20541;-75
2022/05/11 08:10:45;;;;;;;9.60;2.55;;;17.30;99.40;;;;;;5037646;28;20021;-73
2022/05/11 08:13:12;;;;;;;5.55;1.73;;;17.60;99.00;;;;;;5030439;28;20022;-74
2022/05/11 08:15:44;;;;;;;11.05;2.25;;;17.60;98.60;;;;;;5043595;28;20031;-73
2022/05/11 08:18:12;;;;;;;9.25;2.15;;;17.60;99.20;;;;;;5022326;28;20037;-73
2022/05/11 08:20:42;;;;;;;14.20;2.10;;;18.00;98.80;;;;;;5050223;28;20017;-74
2022/05/11 08:23:09;;;;;;;16.33;2.35;;;18.00;98.60;;;;;;5033164;28;20033;-73
2022/05/11 08:25:37;;;;;;;9.55;2.10;;;17.90;97.90;;;;;;5033494;28;20022;-73
2022/05/11 08:28:13;;;;;;;13.07;2.15;;;17.90;98.70;;;;;;5033587;28;20478;-73
2022/05/11 08:33:23;;;;;;;5.82;1.67;;;18.60;97.40;;;;;;5032996;28;20045;-74
2022/05/11 08:35:51;;;;;;;9.93;2.03;;;18.40;96.90;;;;;;5034301;28;20036;-73
2022/05/11 08:38:19;;;;;;;6.00;2.00;;;18.70;97.00;;;;;;5034145;28;20036;-73
2022/05/11 08:40:51;;;;;;;14.32;2.20;;;18.60;97.10;;;;;;5034128;28;20033;-73
2022/05/11 08:43:18;;;;;;;5.47;1.17;;;18.20;97.60;;;;;;5034028;28;20116;-73
2022/05/11 08:45:54;;;;;;;10.18;2.00;;;18.10;97.80;;;;;;5016378;28;20025;-74
2022/05/11 08:48:33;;;;;;;9.40;2.15;;;18.30;98.00;;;;;;5051468;28;20477;-74
2022/05/11 08:51:02;;;;;;;9.63;2.10;;;18.80;97.90;;;;;;5053804;28;20147;-73
2022/05/11 08:53:37;;;;;;;9.00;2.20;;;19.10;96.80;;;;;;5035867;28;20040;-74
2022/05/11 08:56:14;;;;;;;10.23;2.33;;;18.80;96.50;;;;;;5053798;28;20063;-73
2022/05/11 08:58:54;;;;;;;7.82;1.52;;;19.00;96.50;;;;;;5053591;28;20033;-74
2022/05/11 09:01:29;;;;;;;7.85;1.70;;;19.30;95.80;;;;;;5053729;28;20056;-73
2022/05/11 09:03:58;;;;;;;10.73;2.03;;;18.90;96.80;;;;;;5053250;28;20052;-74
2022/05/11 09:06:30;;;;;;;9.50;2.03;;;19.20;96.60;;;;;;5053421;28;20029;-74
2022/05/11 09:08:58;;;;;;;10.07;2.28;;;19.10;96.70;;;;;;5052913;28;20024;-74
2022/05/11 09:11:32;;;;;;;12.45;2.38;;;19.00;96.90;;;;;;5034993;28;20025;-74
2022/05/11 09:14:00;;;;;;;14.38;2.60;;;19.20;96.60;;;;;;5053509;28;20033;-74
2022/05/11 09:16:35;;;;;;;6.88;1.98;;;19.40;96.50;;;;;;5053399;28;20025;-74
2022/05/11 09:19:11;;;;;;;13.80;2.85;;;19.30;96.40;;;;;;5053076;28;20146;-74
2022/05/11 09:21:38;;;;;;;14.80;3.17;;;19.00;96.80;;;;;;5053405;28;20037;-74
2022/05/11 09:24:20;;;;;;;3.70;1.60;;;18.50;97.20;;;;;;5053272;28;20033;-74
2022/05/11 09:26:58;;;;;;;26.77;4.30;;;18.70;97.40;;;;;;5053287;28;20029;-74
2022/05/11 09:29:39;;;;;;;14.55;2.90;;;18.90;97.20;;;;;;5053077;28;20066;-74
2022/05/11 09:32:32;;;;;;;8.73;2.30;;;19.40;96.70;;;;;;5052767;28;20098;-74
2022/05/11 09:35:20;;;;;;;11.75;2.65;;;18.80;98.00;;;;;;5035152;28;20493;-74
2022/05/11 09:38:01;;;;;;;10.10;2.35;;;18.70;98.20;;;;;;5053146;28;20041;-74
2022/05/11 09:40:29;;;;;;;8.30;2.10;;;19.00;97.80;;;;;;5035099;28;20044;-74
2022/05/11 09:43:05;;;;;;;10.65;2.15;;;18.60;98.10;;;;;;5053215;28;20040;-74
2022/05/11 09:45:33;;;;;;;14.80;2.65;;;18.80;98.30;;;;;;5035184;28;20098;-74
2022/05/11 09:48:07;;;;;;;12.07;2.30;;;19.20;97.20;;;;;;5034836;28;20024;-74
2022/05/11 09:50:34;;;;;;;8.38;2.40;;;19.40;97.50;;;;;;5052766;28;20032;-71
2022/05/11 09:53:14;;;;;;;9.38;2.20;;;19.50;97.50;;;;;;5052623;28;20488;-71
2022/05/11 09:55:40;;;;;;;5.45;1.83;;;20.10;96.90;;;;;;5052818;28;20025;-71
2022/05/11 09:58:07;;;;;;;7.00;2.35;;;20.10;96.00;;;;;;5047493;28;20047;-72
2022/05/11 10:00:38;;;;;;;11.68;2.30;;;19.50;96.80;;;;;;5047059;28;20033;-72
2022/05/11 10:03:10;;;;;;;3.83;1.83;;;19.50;97.40;;;;;;5021714;28;20059;-72
2022/05/11 10:05:44;;;;;;;9.48;2.53;;;19.50;97.10;;;;;;5027894;28;20242;-72
2022/05/11 10:08:33;;;;;;;16.95;2.83;;;19.80;96.90;;;;;;5043044;28;20033;-72
2022/05/11 10:11:37;;;;;;;8.40;2.17;;;20.10;96.60;;;;;;5035502;28;20377;-72
2022/05/11 10:22:39;;;;;;;16.10;3.08;;;19.90;96.90;;;;;;5048607;28;20062;-72
2022/05/11 10:25:27;;;;;;;;;;;19.60;96.80;;;;;;5056308;28;20029;-72
2022/05/11 10:28:12;;;;;;;9.43;2.78;;;19.50;97.00;;;;;;5039194;28;19916;-72
2022/05/11 10:31:17;;;;;;;8.32;2.38;;;19.70;96.70;;;;;;5032759;28;20128;-72
2022/05/11 10:33:47;;;;;;;7.32;2.10;;;20.10;96.30;;;;;;5043275;28;20100;-72
2022/05/11 10:36:57;;;;;;;21.55;2.83;;;20.20;96.20;;;;;;5056233;28;20403;-72
2022/05/11 10:39:23;;;;;;;11.05;2.58;;;20.40;96.30;;;;;;5049456;28;20025;-72
2022/05/11 10:42:36;;;;;;;9.27;2.25;;;20.50;94.80;;;;;;5047637;28;20120;-72
2022/05/11 10:45:23;;;;;;;15.23;3.58;;;20.60;95.30;;;;;;5045242;28;20041;-72
2022/05/11 10:48:35;;;;;;;20.05;2.72;;;20.60;95.30;;;;;;5049482;28;20486;-72
2022/05/11 10:51:07;;;;;;;8.23;2.58;;;20.70;94.20;;;;;;5038852;28;20104;-72
2022/05/11 10:54:14;;;;;;;15.60;3.03;;;21.20;94.20;;;;;;5049594;28;20032;-72
2022/05/11 10:57:17;;;;;;;14.35;2.40;;;21.10;94.80;;;;;;4976425;28;20043;-72
2022/05/11 11:00:04;;;;;;;6.20;2.25;;;21.50;94.20;;;;;;5042690;28;20509;-72
2022/05/11 11:02:49;;;;;;;7.78;2.65;;;21.90;93.20;;;;;;5054660;28;20390;-72
2022/05/11 11:09:11;;;;;;;19.33;2.92;;;21.10;93.70;;;;;;4993414;28;20101;-72
2022/05/11 11:11:58;;;;;;;13.75;2.33;;;21.70;93.60;;;;;;5041568;28;20044;-72
2022/05/11 11:14:31;;;;;;;8.57;2.42;;;21.60;93.20;;;;;;5045503;28;20108;-72
2022/05/11 11:16:57;;;;;;;13.52;2.92;;;21.30;93.50;;;;;;5053454;28;20035;-72
2022/05/11 11:19:24;;;;;;;10.40;2.38;;;21.30;93.00;;;;;;5055480;28;20036;-72
2022/05/11 11:21:51;;;;;;;11.82;2.67;;;21.80;93.60;;;;;;5054966;28;20017;-74
2022/05/11 11:24:23;;;;;;;9.88;1.90;;;22.20;92.00;;;;;;5055403;28;20029;-74
2022/05/11 11:27:05;;;;;;;11.43;2.78;;;22.70;92.00;;;;;;5036080;28;20032;-74
2022/05/11 11:30:16;;;;;;;7.78;2.58;;;21.90;91.70;;;;;;5055337;28;20496;-74
2022/05/11 11:33:13;;;;;;;6.93;2.25;;;21.90;92.00;;;;;;5052382;28;20049;-74
2022/05/11 11:35:51;;;;;;;9.75;2.55;;;21.80;92.10;;;;;;5054583;28;20036;-74
2022/05/11 11:38:44;;;;;;;10.73;2.40;;;21.20;92.40;;;;;;5055113;28;20029;-74
2022/05/11 11:41:24;;;;;;;12.02;2.40;;;21.80;92.50;;;;;;5055851;28;20120;-74
2022/05/11 11:44:00;;;;;;;5.07;2.10;;;22.20;91.70;;;;;;5055162;28;20063;-75
2022/05/11 11:46:34;;;;;;;8.27;2.10;;;22.50;91.80;;;;;;5037513;28;20041;-74
2022/05/11 11:49:18;;;;;;;11.90;2.00;;;22.20;91.70;;;;;;5055209;28;20096;-74
2022/05/11 11:52:04;;;;;;;8.18;2.75;;;22.20;91.10;;;;;;5055071;28;20148;-74
2022/05/11 11:54:49;;;;;;;17.65;3.13;;;22.10;91.70;;;;;;5054822;28;20036;-74
2022/05/11 11:57:16;;;;;;;18.23;2.60;;;22.20;91.60;;;;;;5054746;28;20021;-73
2022/05/11 11:59:47;;;;;;;6.00;1.73;;;22.40;91.50;;;;;;5055476;28;20029;-75
2022/05/11 12:02:16;;;;;;;12.05;2.38;;;22.40;91.40;;;;;;5054858;28;20107;-74
2022/05/11 12:05:07;;;;;;;9.95;2.00;;;22.70;91.30;;;;;;5054635;28;20025;-74
2022/05/11 12:16:13;;;;;;;13.63;2.53;;;22.30;90.70;;;;;;5054780;28;20033;-73
2022/05/11 12:18:41;;;;;;;14.70;2.20;;;22.90;90.60;;;;;;5037080;28;20021;-74
2022/05/11 12:21:29;;;;;;;7.95;2.20;;;23.50;89.90;;;;;;5062867;28;20028;-74
2022/05/11 12:23:57;;;;;;;12.23;3.00;;;22.80;90.20;;;;;;5055911;28;20191;-72
2022/05/11 12:26:40;;;;;;;12.27;2.08;;;22.90;90.20;;;;;;5075262;28;20473;-75
2022/05/11 12:31:59;;;;;;;8.40;2.25;;;23.70;88.80;;;;;;5077528;28;20052;-74
2022/05/11 12:34:29;;;;;;;9.60;1.98;;;23.80;88.60;;;;;;5077524;28;20556;-75
2022/05/11 12:36:55;;;;;;;18.75;2.53;;;24.40;89.60;;;;;;5057986;28;20037;-74
2022/05/11 12:39:35;;;;;;;9.80;2.20;;;24.10;87.40;;;;;;5077532;28;20461;-74
2022/05/11 12:42:03;;;;;;;9.75;1.75;;;23.90;88.50;;;;;;5076591;28;20051;-73
2022/05/11 12:44:34;;;;;;;11.05;2.03;;;23.90;87.40;;;;;;5074576;28;20078;-74
2022/05/11 12:47:01;;;;;;;6.35;1.60;;;23.60;87.70;;;;;;5066046;28;20103;-73
2022/05/11 12:49:28;;;;;;;12.38;2.40;;;23.80;87.20;;;;;;5054425;28;20484;-73
2022/05/11 12:52:05;;;;;;;13.82;2.35;;;23.50;88.20;;;;;;5036618;28;20087;-73
2022/05/11 12:54:31;;;;;;;12.95;2.58;;;23.80;89.00;;;;;;5041140;28;20473;-75
2022/05/11 12:57:08;;;;;;;11.45;2.53;;;24.40;87.60;;;;;;5057025;28;20040;-73
2022/05/11 12:59:35;;;;;;;14.80;2.63;;;24.60;87.00;;;;;;5075015;28;20381;-73
2022/05/11 13:02:23;;;;;;;16.95;2.30;;;24.60;86.40;;;;;;5074696;28;20055;-74
2022/05/11 13:04:59;;;;;;;15.32;2.33;;;24.50;86.30;;;;;;5054308;28;20484;-75
2022/05/11 13:07:56;;;;;;;12.23;1.80;;;24.60;85.90;;;;;;5111646;27;20112;-73
2022/05/11 13:10:33;;;;;;;15.85;2.55;;;25.00;85.40;;;;;;5110358;28;20031;-73
2022/05/11 13:13:00;;;;;;;9.40;2.40;;;24.80;85.40;;;;;;5111487;28;20457;-74
2022/05/11 13:15:46;;;;;;;10.95;2.33;;;25.10;85.40;;;;;;5110954;28;20030;-74
2022/05/11 13:18:23;;;;;;;7.78;2.22;;;24.50;85.50;;;;;;5111275;28;20060;-74
2022/05/11 13:20:52;;;;;;;7.40;1.90;;;25.00;85.50;;;;;;5111106;28;20020;-74
2022/05/11 13:23:39;;;;;;;7.63;1.80;;;25.90;84.50;;;;;;5111264;28;20032;-74
2022/05/11 13:26:40;;;;;;;11.75;2.35;;;26.40;83.20;;;;;;5111391;28;20040;-74
2022/05/11 13:29:25;;;;;;;7.93;2.15;;;26.30;83.60;;;;;;5101879;28;20126;-74
2022/05/11 13:32:05;;;;;;;6.68;2.35;;;25.80;83.50;;;;;;5090502;28;20131;-73
2022/05/11 13:34:35;;;;;;;9.05;1.95;;;25.90;83.30;;;;;;5089756;28;20032;-73
2022/05/11 13:37:03;;;;;;;11.93;2.17;;;24.20;85.30;;;;;;5090983;28;20044;-74
2022/05/11 13:39:30;;;;;;;9.10;2.30;;;24.10;85.30;;;;;;5091275;28;20036;-73
2022/05/11 13:42:03;;;;;;;9.80;2.20;;;23.90;85.20;;;;;;5091465;28;20496;-75
2022/05/11 13:44:40;;;;;;;12.60;1.85;;;24.60;85.00;;;;;;5091313;28;20376;-74
2022/05/11 13:50:38;;;;;;;15.10;1.92;;;25.10;83.90;;;;;;5110663;28;20495;-73
2022/05/11 13:53:42;;;;;;;9.27;2.28;;;25.20;83.30;;;;;;5109231;28;20487;-75
2022/05/11 13:56:14;;;;;;;5.72;1.63;;;25.50;83.90;;;;;;5108943;28;20407;-73